sensor_id;sensor_type;location;lat;lon;timestamp;temperature;humidity
9103;DHT22;4587;51.434;6.788;2023-04-24T00:00:06;12.40;99.90
9103;DHT22;4587;51.434;6.788;2023-04-24T00:02:32;12.40;99.90
9103;DHT22;4587;51.434;6.788;2023-04-24T00:04:59;12.40;99.90
9103;DHT22;4587;51.434;6.788;2023-04-24T00:07:28;12.40;99.90
9103;DHT22;4587;51.434;6.788;2023-04-24T00:09:54;12.40;99.90
9103;DHT22;4587;51.434;6.788;2023-04-24T00:12:20;12.50;99.90
9103;DHT22;4587;51.434;6.788;2023-04-24T00:14:46;12.50;99.90
9103;DHT22;4587;51.434;6.788;2023-04-24T00:17:12;12.50;99.90
9103;DHT22;4587;51.434;6.788;2023-04-24T00:19:38;12.50;99.90
9103;DHT22;4587;51.434;6.788;2023-04-24T00:22:03;12.50;99.90
9103;DHT22;4587;51.434;6.788;2023-04-24T00:24:29;12.40;99.90
9103;DHT22;4587;51.434;6.788;2023-04-24T00:26:55;12.40;99.90
9103;DHT22;4587;51.434;6.788;2023-04-24T00:29:21;12.40;99.90
9103;DHT22;4587;51.434;6.788;2023-04-24T00:31:47;12.40;99.90
9103;DHT22;4587;51.434;6.788;2023-04-24T00:34:12;12.30;99.90
9103;DHT22;4587;51.434;6.788;2023-04-24T00:36:38;12.30;99.90
9103;DHT22;4587;51.434;6.788;2023-04-24T00:39:04;12.20;99.90
9103;DHT22;4587;51.434;6.788;2023-04-24T00:41:29;12.30;99.90
9103;DHT22;4587;51.434;6.788;2023-04-24T00:43:55;12.30;99.90
9103;DHT22;4587;51.434;6.788;2023-04-24T00:46:21;12.30;99.90
9103;DHT22;4587;51.434;6.788;2023-04-24T00:48:47;12.30;99.90
9103;DHT22;4587;51.434;6.788;2023-04-24T00:51:13;12.20;99.90
9103;DHT22;4587;51.434;6.788;2023-04-24T00:53:39;12.20;99.90
9103;DHT22;4587;51.434;6.788;2023-04-24T00:56:04;12.30;99.90
9103;DHT22;4587;51.434;6.788;2023-04-24T00:58:31;12.20;99.90
9103;DHT22;4587;51.434;6.788;2023-04-24T01:00:57;12.20;99.90
9103;DHT22;4587;51.434;6.788;2023-04-24T01:03:27;12.10;99.90
9103;DHT22;4587;51.434;6.788;2023-04-24T01:05:54;12.10;99.90
9103;DHT22;4587;51.434;6.788;2023-04-24T01:08:22;12.00;99.90
9103;DHT22;4587;51.434;6.788;2023-04-24T01:10:50;11.90;99.90
9103;DHT22;4587;51.434;6.788;2023-04-24T01:13:17;11.80;99.90
9103;DHT22;4587;51.434;6.788;2023-04-24T01:15:43;11.80;99.90
9103;DHT22;4587;51.434;6.788;2023-04-24T01:18:09;11.70;99.90
9103;DHT22;4587;51.434;6.788;2023-04-24T01:20:35;11.60;99.90
9103;DHT22;4587;51.434;6.788;2023-04-24T01:23:02;11.50;99.90
9103;DHT22;4587;51.434;6.788;2023-04-24T01:25:28;11.40;99.90
9103;DHT22;4587;51.434;6.788;2023-04-24T01:27:54;11.30;99.90
9103;DHT22;4587;51.434;6.788;2023-04-24T01:30:19;11.30;99.90
9103;DHT22;4587;51.434;6.788;2023-04-24T01:32:45;11.30;99.90
9103;DHT22;4587;51.434;6.788;2023-04-24T01:35:11;11.20;99.90
9103;DHT22;4587;51.434;6.788;2023-04-24T01:37:37;11.30;99.90
9103;DHT22;4587;51.434;6.788;2023-04-24T01:40:05;11.30;99.90
9103;DHT22;4587;51.434;6.788;2023-04-24T01:42:32;11.20;99.90
9103;DHT22;4587;51.434;6.788;2023-04-24T01:44:58;11.30;99.90
9103;DHT22;4587;51.434;6.788;2023-04-24T01:47:24;11.40;99.90
9103;DHT22;4587;51.434;6.788;2023-04-24T01:49:50;11.30;99.90
9103;DHT22;4587;51.434;6.788;2023-04-24T01:52:16;11.30;99.90
9103;DHT22;4587;51.434;6.788;2023-04-24T01:54:43;11.30;99.90
9103;DHT22;4587;51.434;6.788;2023-04-24T01:57:09;11.40;99.90
9103;DHT22;4587;51.434;6.788;2023-04-24T01:59:34;11.30;99.90
9103;DHT22;4587;51.434;6.788;2023-04-24T02:02:05;11.40;99.90
9103;DHT22;4587;51.434;6.788;2023-04-24T02:04:30;11.40;99.90
9103;DHT22;4587;51.434;6.788;2023-04-24T02:06:56;11.40;99.90
9103;DHT22;4587;51.434;6.788;2023-04-24T02:09:22;11.30;99.90
9103;DHT22;4587;51.434;6.788;2023-04-24T02:11:47;11.30;99.90
9103;DHT22;4587;51.434;6.788;2023-04-24T02:14:13;11.30;99.90
9103;DHT22;4587;51.434;6.788;2023-04-24T02:16:39;11.30;99.90
9103;DHT22;4587;51.434;6.788;2023-04-24T02:19:05;11.30;99.90
9103;DHT22;4587;51.434;6.788;2023-04-24T02:21:31;11.30;99.90
9103;DHT22;4587;51.434;6.788;2023-04-24T02:23:57;11.20;99.90
9103;DHT22;4587;51.434;6.788;2023-04-24T02:26:23;11.20;99.90
9103;DHT22;4587;51.434;6.788;2023-04-24T02:28:49;11.20;99.90
9103;DHT22;4587;51.434;6.788;2023-04-24T02:31:15;11.10;99.90
9103;DHT22;4587;51.434;6.788;2023-04-24T02:33:40;11.10;99.90
9103;DHT22;4587;51.434;6.788;2023-04-24T02:36:06;11.10;99.90
9103;DHT22;4587;51.434;6.788;2023-04-24T02:38:32;11.10;99.90
9103;DHT22;4587;51.434;6.788;2023-04-24T02:40:58;11.00;99.90
9103;DHT22;4587;51.434;6.788;2023-04-24T02:43:23;11.00;99.90
9103;DHT22;4587;51.434;6.788;2023-04-24T02:45:49;11.10;99.90
9103;DHT22;4587;51.434;6.788;2023-04-24T02:48:15;11.10;99.90
9103;DHT22;4587;51.434;6.788;2023-04-24T02:50:40;11.10;99.90
9103;DHT22;4587;51.434;6.788;2023-04-24T02:53:06;11.10;99.90
9103;DHT22;4587;51.434;6.788;2023-04-24T02:55:32;11.00;99.90
9103;DHT22;4587;51.434;6.788;2023-04-24T02:57:57;11.00;99.90
9103;DHT22;4587;51.434;6.788;2023-04-24T03:00:23;11.10;99.90
9103;DHT22;4587;51.434;6.788;2023-04-24T03:02:49;11.10;99.90
9103;DHT22;4587;51.434;6.788;2023-04-24T03:05:15;11.10;99.90
9103;DHT22;4587;51.434;6.788;2023-04-24T03:07:41;11.00;99.90
9103;DHT22;4587;51.434;6.788;2023-04-24T03:10:07;11.10;99.90
9103;DHT22;4587;51.434;6.788;2023-04-24T03:12:33;11.00;99.90
9103;DHT22;4587;51.434;6.788;2023-04-24T03:14:58;10.90;99.90
9103;DHT22;4587;51.434;6.788;2023-04-24T03:17:24;11.00;99.90
9103;DHT22;4587;51.434;6.788;2023-04-24T03:19:50;11.10;99.90
9103;DHT22;4587;51.434;6.788;2023-04-24T03:22:16;11.20;99.90
9103;DHT22;4587;51.434;6.788;2023-04-24T03:24:41;11.10;99.90
9103;DHT22;4587;51.434;6.788;2023-04-24T03:27:07;11.10;99.90
9103;DHT22;4587;51.434;6.788;2023-04-24T03:29:33;11.10;99.90
9103;DHT22;4587;51.434;6.788;2023-04-24T03:31:58;11.10;99.90
9103;DHT22;4587;51.434;6.788;2023-04-24T03:34:24;11.20;99.90
9103;DHT22;4587;51.434;6.788;2023-04-24T03:36:50;11.10;99.90
9103;DHT22;4587;51.434;6.788;2023-04-24T03:39:16;11.10;99.90
9103;DHT22;4587;51.434;6.788;2023-04-24T03:41:41;11.10;99.90
9103;DHT22;4587;51.434;6.788;2023-04-24T03:44:07;11.10;99.90
9103;DHT22;4587;51.434;6.788;2023-04-24T03:46:33;11.00;99.90
9103;DHT22;4587;51.434;6.788;2023-04-24T03:48:58;11.10;99.90
9103;DHT22;4587;51.434;6.788;2023-04-24T03:51:24;11.10;99.90
9103;DHT22;4587;51.434;6.788;2023-04-24T03:53:50;11.10;99.90
9103;DHT22;4587;51.434;6.788;2023-04-24T03:56:16;11.10;99.90
9103;DHT22;4587;51.434;6.788;2023-04-24T03:58:42;11.10;99.90
9103;DHT22;4587;51.434;6.788;2023-04-24T04:01:08;11.20;99.90
9103;DHT22;4587;51.434;6.788;2023-04-24T04:03:33;11.10;99.90
9103;DHT22;4587;51.434;6.788;2023-04-24T04:05:59;11.10;99.90
9103;DHT22;4587;51.434;6.788;2023-04-24T04:08:25;11.10;99.90
9103;DHT22;4587;51.434;6.788;2023-04-24T04:10:51;11.10;99.90
9103;DHT22;4587;51.434;6.788;2023-04-24T04:13:16;11.10;99.90
9103;DHT22;4587;51.434;6.788;2023-04-24T04:15:42;11.10;99.90
9103;DHT22;4587;51.434;6.788;2023-04-24T04:18:11;11.10;99.90
9103;DHT22;4587;51.434;6.788;2023-04-24T04:20:37;11.10;99.90
9103;DHT22;4587;51.434;6.788;2023-04-24T04:23:02;11.00;99.90
9103;DHT22;4587;51.434;6.788;2023-04-24T04:25:28;11.10;99.90
9103;DHT22;4587;51.434;6.788;2023-04-24T04:27:54;11.10;99.90
9103;DHT22;4587;51.434;6.788;2023-04-24T04:30:20;11.10;99.90
9103;DHT22;4587;51.434;6.788;2023-04-24T04:32:46;11.10;99.90
9103;DHT22;4587;51.434;6.788;2023-04-24T04:35:12;11.00;99.90
9103;DHT22;4587;51.434;6.788;2023-04-24T04:37:38;11.10;99.90
9103;DHT22;4587;51.434;6.788;2023-04-24T04:40:05;11.10;99.90
9103;DHT22;4587;51.434;6.788;2023-04-24T04:42:32;11.10;99.90
9103;DHT22;4587;51.434;6.788;2023-04-24T04:45:01;11.10;99.90
9103;DHT22;4587;51.434;6.788;2023-04-24T04:47:27;11.10;99.90
9103;DHT22;4587;51.434;6.788;2023-04-24T04:49:54;11.00;99.90
9103;DHT22;4587;51.434;6.788;2023-04-24T04:52:20;11.10;99.90
9103;DHT22;4587;51.434;6.788;2023-04-24T04:54:45;11.10;99.90
9103;DHT22;4587;51.434;6.788;2023-04-24T04:57:11;11.00;99.90
9103;DHT22;4587;51.434;6.788;2023-04-24T04:59:37;11.00;99.90
9103;DHT22;4587;51.434;6.788;2023-04-24T05:02:06;11.00;99.90
9103;DHT22;4587;51.434;6.788;2023-04-24T05:04:31;11.10;99.90
9103;DHT22;4587;51.434;6.788;2023-04-24T05:06:57;11.10;99.90
9103;DHT22;4587;51.434;6.788;2023-04-24T05:09:23;11.00;99.90
9103;DHT22;4587;51.434;6.788;2023-04-24T05:11:48;11.00;99.90
9103;DHT22;4587;51.434;6.788;2023-04-24T05:14:14;11.00;99.90
9103;DHT22;4587;51.434;6.788;2023-04-24T05:16:40;11.00;99.90
9103;DHT22;4587;51.434;6.788;2023-04-24T05:19:05;11.00;99.90
9103;DHT22;4587;51.434;6.788;2023-04-24T05:21:32;11.00;99.90
9103;DHT22;4587;51.434;6.788;2023-04-24T05:23:57;10.90;99.90
9103;DHT22;4587;51.434;6.788;2023-04-24T05:26:23;11.00;99.90
9103;DHT22;4587;51.434;6.788;2023-04-24T05:28:49;11.00;99.90
9103;DHT22;4587;51.434;6.788;2023-04-24T05:31:15;10.90;99.90
9103;DHT22;4587;51.434;6.788;2023-04-24T05:33:43;10.80;99.90
9103;DHT22;4587;51.434;6.788;2023-04-24T05:36:08;10.70;99.90
9103;DHT22;4587;51.434;6.788;2023-04-24T05:38:34;10.60;99.90
9103;DHT22;4587;51.434;6.788;2023-04-24T05:41:00;10.60;99.90
9103;DHT22;4587;51.434;6.788;2023-04-24T05:43:25;10.60;99.90
9103;DHT22;4587;51.434;6.788;2023-04-24T05:45:51;10.50;99.90
9103;DHT22;4587;51.434;6.788;2023-04-24T05:48:18;10.60;99.90
9103;DHT22;4587;51.434;6.788;2023-04-24T05:50:44;10.60;99.90
9103;DHT22;4587;51.434;6.788;2023-04-24T05:53:10;10.60;99.90
9103;DHT22;4587;51.434;6.788;2023-04-24T05:55:36;10.60;99.90
9103;DHT22;4587;51.434;6.788;2023-04-24T05:58:02;10.60;99.90
9103;DHT22;4587;51.434;6.788;2023-04-24T06:00:28;10.70;99.90
9103;DHT22;4587;51.434;6.788;2023-04-24T06:02:54;10.70;99.90
9103;DHT22;4587;51.434;6.788;2023-04-24T06:05:19;10.70;99.90
9103;DHT22;4587;51.434;6.788;2023-04-24T06:07:45;10.70;99.90
9103;DHT22;4587;51.434;6.788;2023-04-24T06:10:11;10.70;99.90
9103;DHT22;4587;51.434;6.788;2023-04-24T06:12:36;10.70;99.90
9103;DHT22;4587;51.434;6.788;2023-04-24T06:15:03;10.70;99.90
9103;DHT22;4587;51.434;6.788;2023-04-24T06:17:29;10.80;99.90
9103;DHT22;4587;51.434;6.788;2023-04-24T06:19:55;10.80;99.90
9103;DHT22;4587;51.434;6.788;2023-04-24T06:22:20;10.70;99.90
9103;DHT22;4587;51.434;6.788;2023-04-24T06:24:46;10.70;99.90
9103;DHT22;4587;51.434;6.788;2023-04-24T06:27:13;10.60;99.90
9103;DHT22;4587;51.434;6.788;2023-04-24T06:29:39;10.60;99.90
9103;DHT22;4587;51.434;6.788;2023-04-24T06:32:05;10.60;99.90
9103;DHT22;4587;51.434;6.788;2023-04-24T06:34:30;10.60;99.90
9103;DHT22;4587;51.434;6.788;2023-04-24T06:36:58;10.60;99.90
9103;DHT22;4587;51.434;6.788;2023-04-24T06:39:24;10.60;99.90
9103;DHT22;4587;51.434;6.788;2023-04-24T06:41:49;10.60;99.90
9103;DHT22;4587;51.434;6.788;2023-04-24T06:44:15;10.50;99.90
9103;DHT22;4587;51.434;6.788;2023-04-24T06:46:42;10.60;99.90
9103;DHT22;4587;51.434;6.788;2023-04-24T06:49:07;10.50;99.90
9103;DHT22;4587;51.434;6.788;2023-04-24T06:51:33;10.50;99.90
9103;DHT22;4587;51.434;6.788;2023-04-24T06:53:59;10.60;99.90
9103;DHT22;4587;51.434;6.788;2023-04-24T06:56:25;10.60;99.90
9103;DHT22;4587;51.434;6.788;2023-04-24T06:58:54;10.60;99.90
9103;DHT22;4587;51.434;6.788;2023-04-24T07:01:20;10.60;99.90
9103;DHT22;4587;51.434;6.788;2023-04-24T07:03:46;10.60;99.90
9103;DHT22;4587;51.434;6.788;2023-04-24T07:06:11;10.60;99.90
9103;DHT22;4587;51.434;6.788;2023-04-24T07:08:38;10.60;99.90
9103;DHT22;4587;51.434;6.788;2023-04-24T07:11:03;10.60;99.90
9103;DHT22;4587;51.434;6.788;2023-04-24T07:13:29;10.60;99.90
9103;DHT22;4587;51.434;6.788;2023-04-24T07:15:55;10.60;99.90
9103;DHT22;4587;51.434;6.788;2023-04-24T07:18:21;10.60;99.90
9103;DHT22;4587;51.434;6.788;2023-04-24T07:20:47;10.60;99.90
9103;DHT22;4587;51.434;6.788;2023-04-24T07:23:15;10.60;99.90
9103;DHT22;4587;51.434;6.788;2023-04-24T07:25:41;10.60;99.90
9103;DHT22;4587;51.434;6.788;2023-04-24T07:28:07;10.60;99.90
9103;DHT22;4587;51.434;6.788;2023-04-24T07:30:33;10.60;99.90
9103;DHT22;4587;51.434;6.788;2023-04-24T07:32:59;10.70;99.90
9103;DHT22;4587;51.434;6.788;2023-04-24T07:35:26;10.70;99.90
9103;DHT22;4587;51.434;6.788;2023-04-24T07:37:53;10.70;99.90
9103;DHT22;4587;51.434;6.788;2023-04-24T07:40:19;10.60;99.90
9103;DHT22;4587;51.434;6.788;2023-04-24T07:42:45;10.60;99.90
9103;DHT22;4587;51.434;6.788;2023-04-24T07:45:10;10.50;99.90
9103;DHT22;4587;51.434;6.788;2023-04-24T07:47:36;10.50;99.90
9103;DHT22;4587;51.434;6.788;2023-04-24T07:50:03;10.50;99.90
9103;DHT22;4587;51.434;6.788;2023-04-24T07:52:29;10.40;99.90
9103;DHT22;4587;51.434;6.788;2023-04-24T07:54:55;10.40;99.90
9103;DHT22;4587;51.434;6.788;2023-04-24T07:57:26;10.30;99.90
9103;DHT22;4587;51.434;6.788;2023-04-24T07:59:52;10.20;99.90
9103;DHT22;4587;51.434;6.788;2023-04-24T08:02:18;10.20;99.90
9103;DHT22;4587;51.434;6.788;2023-04-24T08:04:43;10.20;99.90
9103;DHT22;4587;51.434;6.788;2023-04-24T08:07:09;10.30;99.90
9103;DHT22;4587;51.434;6.788;2023-04-24T08:09:35;10.30;99.90
9103;DHT22;4587;51.434;6.788;2023-04-24T08:12:00;10.30;99.90
9103;DHT22;4587;51.434;6.788;2023-04-24T08:14:27;10.20;99.90
9103;DHT22;4587;51.434;6.788;2023-04-24T08:16:56;10.20;99.90
9103;DHT22;4587;51.434;6.788;2023-04-24T08:19:22;10.20;99.90
9103;DHT22;4587;51.434;6.788;2023-04-24T08:21:47;10.10;99.90
9103;DHT22;4587;51.434;6.788;2023-04-24T08:24:13;10.10;99.90
9103;DHT22;4587;51.434;6.788;2023-04-24T08:26:42;10.20;99.90
9103;DHT22;4587;51.434;6.788;2023-04-24T08:29:08;10.20;99.90
9103;DHT22;4587;51.434;6.788;2023-04-24T08:31:33;10.10;99.90
9103;DHT22;4587;51.434;6.788;2023-04-24T08:33:59;10.10;99.90
9103;DHT22;4587;51.434;6.788;2023-04-24T08:36:25;10.20;99.90
9103;DHT22;4587;51.434;6.788;2023-04-24T08:38:51;10.20;99.90
9103;DHT22;4587;51.434;6.788;2023-04-24T08:41:18;10.20;99.90
9103;DHT22;4587;51.434;6.788;2023-04-24T08:43:46;10.30;99.90
9103;DHT22;4587;51.434;6.788;2023-04-24T08:46:13;10.40;99.90
9103;DHT22;4587;51.434;6.788;2023-04-24T08:48:39;10.40;99.90
9103;DHT22;4587;51.434;6.788;2023-04-24T08:51:07;10.50;99.90
9103;DHT22;4587;51.434;6.788;2023-04-24T08:53:33;10.60;99.90
9103;DHT22;4587;51.434;6.788;2023-04-24T08:56:01;10.70;99.90
9103;DHT22;4587;51.434;6.788;2023-04-24T08:58:27;10.80;99.90
9103;DHT22;4587;51.434;6.788;2023-04-24T09:00:57;10.70;99.90
9103;DHT22;4587;51.434;6.788;2023-04-24T09:03:24;10.80;99.90
9103;DHT22;4587;51.434;6.788;2023-04-24T09:05:52;10.70;99.90
9103;DHT22;4587;51.434;6.788;2023-04-24T09:08:20;10.60;99.90
9103;DHT22;4587;51.434;6.788;2023-04-24T09:10:49;10.50;99.90
9103;DHT22;4587;51.434;6.788;2023-04-24T09:13:21;10.40;99.90
9103;DHT22;4587;51.434;6.788;2023-04-24T09:15:46;10.50;99.90
9103;DHT22;4587;51.434;6.788;2023-04-24T09:18:12;10.40;99.90
9103;DHT22;4587;51.434;6.788;2023-04-24T09:20:59;10.50;99.90
9103;DHT22;4587;51.434;6.788;2023-04-24T09:23:30;10.40;99.90
9103;DHT22;4587;51.434;6.788;2023-04-24T09:25:57;10.40;99.90
9103;DHT22;4587;51.434;6.788;2023-04-24T09:28:31;10.30;99.90
9103;DHT22;4587;51.434;6.788;2023-04-24T09:31:13;10.40;99.90
9103;DHT22;4587;51.434;6.788;2023-04-24T09:33:57;10.30;99.90
9103;DHT22;4587;51.434;6.788;2023-04-24T09:36:31;10.30;99.90
9103;DHT22;4587;51.434;6.788;2023-04-24T09:39:00;10.20;99.90
9103;DHT22;4587;51.434;6.788;2023-04-24T09:41:27;10.20;99.90
9103;DHT22;4587;51.434;6.788;2023-04-24T09:43:57;10.20;99.90
9103;DHT22;4587;51.434;6.788;2023-04-24T09:46:30;10.10;99.90
9103;DHT22;4587;51.434;6.788;2023-04-24T09:48:57;10.00;99.90
9103;DHT22;4587;51.434;6.788;2023-04-24T09:51:36;10.10;99.90
9103;DHT22;4587;51.434;6.788;2023-04-24T09:54:03;10.10;99.90
9103;DHT22;4587;51.434;6.788;2023-04-24T09:56:32;10.10;99.90
9103;DHT22;4587;51.434;6.788;2023-04-24T09:59:05;10.00;99.90
9103;DHT22;4587;51.434;6.788;2023-04-24T10:01:32;10.20;99.90
9103;DHT22;4587;51.434;6.788;2023-04-24T10:03:58;10.20;99.90
9103;DHT22;4587;51.434;6.788;2023-04-24T10:06:33;10.10;99.90
9103;DHT22;4587;51.434;6.788;2023-04-24T10:08:59;10.30;99.90
9103;DHT22;4587;51.434;6.788;2023-04-24T10:11:28;10.30;99.90
9103;DHT22;4587;51.434;6.788;2023-04-24T10:13:55;10.50;99.90
9103;DHT22;4587;51.434;6.788;2023-04-24T10:16:23;10.60;99.90
9103;DHT22;4587;51.434;6.788;2023-04-24T10:18:49;10.70;99.90
9103;DHT22;4587;51.434;6.788;2023-04-24T10:21:16;10.70;99.90
9103;DHT22;4587;51.434;6.788;2023-04-24T10:23:42;10.80;99.90
9103;DHT22;4587;51.434;6.788;2023-04-24T10:26:12;10.70;99.90
9103;DHT22;4587;51.434;6.788;2023-04-24T10:28:45;10.70;99.90
9103;DHT22;4587;51.434;6.788;2023-04-24T10:31:12;10.70;99.90
9103;DHT22;4587;51.434;6.788;2023-04-24T10:33:42;10.80;99.90
9103;DHT22;4587;51.434;6.788;2023-04-24T10:36:12;10.80;99.90
9103;DHT22;4587;51.434;6.788;2023-04-24T10:38:40;10.60;99.90
9103;DHT22;4587;51.434;6.788;2023-04-24T10:41:11;10.60;99.90
9103;DHT22;4587;51.434;6.788;2023-04-24T10:44:09;10.50;99.90
9103;DHT22;4587;51.434;6.788;2023-04-24T10:46:35;10.50;99.90
9103;DHT22;4587;51.434;6.788;2023-04-24T10:49:10;10.60;99.90
9103;DHT22;4587;51.434;6.788;2023-04-24T10:54:50;10.80;99.90
9103;DHT22;4587;51.434;6.788;2023-04-24T11:02:38;10.90;99.90
9103;DHT22;4587;51.434;6.788;2023-04-24T11:05:06;11.10;99.90
9103;DHT22;4587;51.434;6.788;2023-04-24T11:10:39;11.50;99.90
9103;DHT22;4587;51.434;6.788;2023-04-24T11:13:04;11.50;99.90
9103;DHT22;4587;51.434;6.788;2023-04-24T11:15:30;11.70;99.90
9103;DHT22;4587;51.434;6.788;2023-04-24T11:17:56;11.80;99.90
9103;DHT22;4587;51.434;6.788;2023-04-24T11:20:23;11.70;99.90
9103;DHT22;4587;51.434;6.788;2023-04-24T11:22:53;11.60;99.90
9103;DHT22;4587;51.434;6.788;2023-04-24T11:25:21;11.50;99.90
9103;DHT22;4587;51.434;6.788;2023-04-24T11:27:50;11.30;99.90
9103;DHT22;4587;51.434;6.788;2023-04-24T11:30:29;11.20;99.90
9103;DHT22;4587;51.434;6.788;2023-04-24T11:33:04;11.00;99.90
9103;DHT22;4587;51.434;6.788;2023-04-24T11:35:35;11.00;99.90
9103;DHT22;4587;51.434;6.788;2023-04-24T11:38:04;11.00;99.90
9103;DHT22;4587;51.434;6.788;2023-04-24T11:40:31;11.10;99.90
9103;DHT22;4587;51.434;6.788;2023-04-24T11:42:56;11.20;99.90
9103;DHT22;4587;51.434;6.788;2023-04-24T11:45:29;11.40;99.90
9103;DHT22;4587;51.434;6.788;2023-04-24T11:47:56;11.60;99.90
9103;DHT22;4587;51.434;6.788;2023-04-24T11:50:24;11.70;99.90
9103;DHT22;4587;51.434;6.788;2023-04-24T11:52:55;11.90;99.90
9103;DHT22;4587;51.434;6.788;2023-04-24T11:57:48;12.30;99.90
9103;DHT22;4587;51.434;6.788;2023-04-24T12:00:19;12.40;99.90
9103;DHT22;4587;51.434;6.788;2023-04-24T12:02:46;12.40;99.90
9103;DHT22;4587;51.434;6.788;2023-04-24T12:05:26;12.50;99.90
9103;DHT22;4587;51.434;6.788;2023-04-24T12:07:52;12.40;99.90
9103;DHT22;4587;51.434;6.788;2023-04-24T12:10:26;12.30;99.90
9103;DHT22;4587;51.434;6.788;2023-04-24T12:12:53;12.20;99.90
9103;DHT22;4587;51.434;6.788;2023-04-24T12:15:22;12.00;99.90
9103;DHT22;4587;51.434;6.788;2023-04-24T12:17:50;11.80;99.90
9103;DHT22;4587;51.434;6.788;2023-04-24T12:20:16;11.70;99.90
9103;DHT22;4587;51.434;6.788;2023-04-24T12:22:46;11.50;99.90
9103;DHT22;4587;51.434;6.788;2023-04-24T12:25:13;11.50;99.90
9103;DHT22;4587;51.434;6.788;2023-04-24T12:27:38;11.60;99.90
9103;DHT22;4587;51.434;6.788;2023-04-24T12:30:09;11.70;99.90
9103;DHT22;4587;51.434;6.788;2023-04-24T12:32:35;11.70;99.90
9103;DHT22;4587;51.434;6.788;2023-04-24T12:35:00;11.80;99.90
9103;DHT22;4587;51.434;6.788;2023-04-24T12:37:31;11.90;99.90
9103;DHT22;4587;51.434;6.788;2023-04-24T12:40:09;11.90;99.90
9103;DHT22;4587;51.434;6.788;2023-04-24T12:42:41;12.10;99.90
9103;DHT22;4587;51.434;6.788;2023-04-24T12:45:07;12.10;99.90
9103;DHT22;4587;51.434;6.788;2023-04-24T12:47:34;12.20;99.90
9103;DHT22;4587;51.434;6.788;2023-04-24T12:50:01;12.20;99.90
9103;DHT22;4587;51.434;6.788;2023-04-24T12:52:28;12.30;99.90
9103;DHT22;4587;51.434;6.788;2023-04-24T12:54:56;12.50;99.90
9103;DHT22;4587;51.434;6.788;2023-04-24T12:57:26;12.60;99.90
9103;DHT22;4587;51.434;6.788;2023-04-24T12:59:56;12.70;99.90
9103;DHT22;4587;51.434;6.788;2023-04-24T13:02:22;12.70;99.90
9103;DHT22;4587;51.434;6.788;2023-04-24T13:04:49;12.70;99.90
9103;DHT22;4587;51.434;6.788;2023-04-24T13:07:15;12.70;99.90
9103;DHT22;4587;51.434;6.788;2023-04-24T13:09:45;12.60;99.90
9103;DHT22;4587;51.434;6.788;2023-04-24T13:12:11;12.50;99.90
9103;DHT22;4587;51.434;6.788;2023-04-24T13:14:38;12.30;99.90
9103;DHT22;4587;51.434;6.788;2023-04-24T13:17:03;12.20;99.90
9103;DHT22;4587;51.434;6.788;2023-04-24T13:19:29;12.10;99.90
9103;DHT22;4587;51.434;6.788;2023-04-24T13:21:56;12.00;99.90
9103;DHT22;4587;51.434;6.788;2023-04-24T13:24:25;12.00;99.90
9103;DHT22;4587;51.434;6.788;2023-04-24T13:26:52;12.00;99.90
9103;DHT22;4587;51.434;6.788;2023-04-24T13:29:18;12.10;99.90
9103;DHT22;4587;51.434;6.788;2023-04-24T13:31:44;12.20;99.90
9103;DHT22;4587;51.434;6.788;2023-04-24T13:34:10;12.10;99.90
9103;DHT22;4587;51.434;6.788;2023-04-24T13:36:36;12.10;99.90
9103;DHT22;4587;51.434;6.788;2023-04-24T13:39:02;12.10;99.90
9103;DHT22;4587;51.434;6.788;2023-04-24T13:41:30;12.10;99.90
9103;DHT22;4587;51.434;6.788;2023-04-24T13:43:56;12.10;99.90
9103;DHT22;4587;51.434;6.788;2023-04-24T13:46:21;12.20;99.90
9103;DHT22;4587;51.434;6.788;2023-04-24T13:48:47;12.20;99.90
9103;DHT22;4587;51.434;6.788;2023-04-24T13:51:13;12.30;99.90
9103;DHT22;4587;51.434;6.788;2023-04-24T13:53:38;12.40;99.90
9103;DHT22;4587;51.434;6.788;2023-04-24T13:56:05;12.40;99.90
9103;DHT22;4587;51.434;6.788;2023-04-24T13:58:31;12.50;99.90
9103;DHT22;4587;51.434;6.788;2023-04-24T14:00:57;12.50;99.90
9103;DHT22;4587;51.434;6.788;2023-04-24T14:03:23;12.70;99.90
9103;DHT22;4587;51.434;6.788;2023-04-24T14:05:49;12.80;99.90
9103;DHT22;4587;51.434;6.788;2023-04-24T14:08:15;12.90;99.90
9103;DHT22;4587;51.434;6.788;2023-04-24T14:10:42;13.00;99.90
9103;DHT22;4587;51.434;6.788;2023-04-24T14:13:08;13.00;99.90
9103;DHT22;4587;51.434;6.788;2023-04-24T14:15:35;13.00;99.90
9103;DHT22;4587;51.434;6.788;2023-04-24T14:18:01;13.00;99.90
9103;DHT22;4587;51.434;6.788;2023-04-24T14:20:27;13.00;99.90
9103;DHT22;4587;51.434;6.788;2023-04-24T14:22:52;12.90;99.90
9103;DHT22;4587;51.434;6.788;2023-04-24T14:25:18;12.90;99.90
9103;DHT22;4587;51.434;6.788;2023-04-24T14:27:44;12.70;99.90
9103;DHT22;4587;51.434;6.788;2023-04-24T14:30:11;12.60;99.90
9103;DHT22;4587;51.434;6.788;2023-04-24T14:32:38;12.50;99.90
9103;DHT22;4587;51.434;6.788;2023-04-24T14:35:05;12.40;99.90
9103;DHT22;4587;51.434;6.788;2023-04-24T14:37:31;12.30;99.90
9103;DHT22;4587;51.434;6.788;2023-04-24T14:39:57;12.20;99.90
9103;DHT22;4587;51.434;6.788;2023-04-24T14:42:23;12.20;99.90
9103;DHT22;4587;51.434;6.788;2023-04-24T14:44:48;12.00;99.90
9103;DHT22;4587;51.434;6.788;2023-04-24T14:47:14;12.00;99.90
9103;DHT22;4587;51.434;6.788;2023-04-24T14:49:43;11.80;99.90
9103;DHT22;4587;51.434;6.788;2023-04-24T14:52:09;11.80;99.90
9103;DHT22;4587;51.434;6.788;2023-04-24T14:54:35;11.70;99.90
9103;DHT22;4587;51.434;6.788;2023-04-24T14:57:01;11.70;99.90
9103;DHT22;4587;51.434;6.788;2023-04-24T14:59:28;11.70;99.90
9103;DHT22;4587;51.434;6.788;2023-04-24T15:01:54;11.70;99.90
9103;DHT22;4587;51.434;6.788;2023-04-24T15:04:24;11.80;99.90
9103;DHT22;4587;51.434;6.788;2023-04-24T15:06:51;11.90;99.90
9103;DHT22;4587;51.434;6.788;2023-04-24T15:09:17;12.00;99.90
9103;DHT22;4587;51.434;6.788;2023-04-24T15:11:42;12.10;99.90
9103;DHT22;4587;51.434;6.788;2023-04-24T15:14:08;12.30;99.90
9103;DHT22;4587;51.434;6.788;2023-04-24T15:16:34;12.40;99.90
9103;DHT22;4587;51.434;6.788;2023-04-24T15:19:00;12.40;99.90
9103;DHT22;4587;51.434;6.788;2023-04-24T15:21:26;12.50;99.90
9103;DHT22;4587;51.434;6.788;2023-04-24T15:23:52;12.50;99.90
9103;DHT22;4587;51.434;6.788;2023-04-24T15:26:18;12.70;99.90
9103;DHT22;4587;51.434;6.788;2023-04-24T15:28:44;12.90;99.90
9103;DHT22;4587;51.434;6.788;2023-04-24T15:31:12;12.90;99.90
9103;DHT22;4587;51.434;6.788;2023-04-24T15:33:37;12.80;99.90
9103;DHT22;4587;51.434;6.788;2023-04-24T15:36:04;12.70;99.90
9103;DHT22;4587;51.434;6.788;2023-04-24T15:38:30;12.50;99.90
9103;DHT22;4587;51.434;6.788;2023-04-24T15:40:56;12.40;99.90
9103;DHT22;4587;51.434;6.788;2023-04-24T15:43:22;12.30;99.90
9103;DHT22;4587;51.434;6.788;2023-04-24T15:45:49;12.20;99.90
9103;DHT22;4587;51.434;6.788;2023-04-24T15:48:15;12.20;99.90
9103;DHT22;4587;51.434;6.788;2023-04-24T15:50:42;12.30;99.90
9103;DHT22;4587;51.434;6.788;2023-04-24T15:53:07;12.30;99.90
9103;DHT22;4587;51.434;6.788;2023-04-24T15:55:33;12.30;99.90
9103;DHT22;4587;51.434;6.788;2023-04-24T15:58:00;12.30;99.90
9103;DHT22;4587;51.434;6.788;2023-04-24T16:00:26;12.40;99.90
9103;DHT22;4587;51.434;6.788;2023-04-24T16:03:01;12.30;99.90
9103;DHT22;4587;51.434;6.788;2023-04-24T16:05:26;12.20;99.90
9103;DHT22;4587;51.434;6.788;2023-04-24T16:07:52;12.40;99.90
9103;DHT22;4587;51.434;6.788;2023-04-24T16:10:18;12.50;99.90
9103;DHT22;4587;51.434;6.788;2023-04-24T16:12:44;12.50;99.90